Aviation Digital Data Service (ADDS)

Output produced by METARs form (0958 UTC 19 January 2019)
found at http://www.aviationweather.gov/metar/data/
 
KBXK 190955Z AUTO 07005KT 10SM CLR 09/01 A3027 RMK AO1
KIFP 190520Z 1906/2006 36012KT P6SM FEW250 
     FM191500 36015G23KT P6SM SCT250 
     FM191800 36018G26KT P6SM SCT250 
     FM192300 35014G22KT P6SM SCT250 
     FM200300 36011KT P6SM SCT250
       
KCGZ 190956Z AUTO 02006KT 10SM CLR 09/04 A3026 RMK AO2 SLP245 T00940044 $
KAZC 190955Z AUTO 15004KT 10SM CLR M02/M03 A3041 RMK AO2
KP08 190935Z AUTO 10008KT 10SM CLR 10/02 A3027 RMK AO2
KDUG 190956Z AUTO 07006KT 10SM CLR A3030 RMK AO2 SLPNO $
KDUG 190520Z 1906/2006 36008KT P6SM FEW060 SCT250 
     FM190700 06009KT P6SM SKC 
     FM191800 08016G22KT P6SM SKC
       
KFLG 190857Z AUTO 00000KT 10SM CLR M07/M09 A3036 RMK AO2 SLP281 T10671089 51009
KFLG 190520Z 1906/2006 VRB06KT P6SM SCT250
       
KFHU 190858Z AUTO 11004KT 10SM CLR 06/04 A3031 RMK AO2 SLP233 T00570042 52010
TAF KFHU 190209Z 1902/2008 27009KT 9999 SKC QNH3019INS 
     BECMG 1908/1909 VRB06KT 9999 SKC QNH3027INS 
     BECMG 1918/1919 09009KT 9999 SKC QNH3024INS 
     TEMPO 1920/1923 11012G17KT 
     BECMG 2001/2002 VRB06KT 9999 SKC QNH3026INS TX17/1922Z TNM01/1912Z
       
KGCN 190954Z AUTO 06004KT 10SM CLR M08/M10 A3038 RMK AO2 SLP296 T10781100
KGCN 190520Z 1906/2006 VRB06KT P6SM SCT250
       
KIGM 190951Z AUTO 06007KT 10SM CLR 03/M02 A3036 RMK AO2 SLP252 T00331017
KHII 190935Z AUTO 31004KT 10SM CLR 13/00 A3031 RMK AO2
KFFZ 190954Z AUTO 05010KT 10SM CLR 12/M03 A3025 RMK AO2 SLP229 T01171033
KOLS 190954Z AUTO 00000KT 10SM CLR 05/02 A3025 RMK AO2 SLP214 T00500022
KOLS 190520Z 1906/2006 02005KT P6SM SKC 
     FM190800 VRB03KT P6SM SKC 
     FM191800 10010G18KT P6SM SKC
       
KPGA 190953Z AUTO 13003KT 10SM CLR 01/M04 A3037 RMK AO2 SLP279 T00061044 TSNO
KPGA 190520Z 1906/2006 VRB06KT P6SM SCT250
       
KPAN 190955Z AUTO 03007KT 10SM CLR 03/M09 A3033 RMK AO2
KDVT 190953Z AUTO 02003KT 10SM CLR 09/M01 A3026 RMK AO2 SLP236 T00891006 TSNO
KA39 190935Z AUTO 35007KT 10SM CLR 08/03 A3030 RMK AO2
KPHX 190951Z 00000KT 10SM CLR 11/02 A3024 RMK AO2 SLP230 T01110022 $
KPHX 190842Z 1909/2012 VRB03KT P6SM SKC 
     FM191200 06005KT P6SM SKC 
     FM192200 30006KT P6SM FEW250 
     FM200500 08004KT P6SM SCT250
       
KIWA 190935Z AUTO 14003KT 10SM CLR 08/06 A3027 RMK AO2 T00750059
KIWA 190520Z 1906/2006 08005KT P6SM SKC 
     FM192000 29005KT P6SM FEW250 
     FM200400 10004KT P6SM SCT250 AMD LTD TO CLD VIS AND WIND TIL 191200
       
KPRC 190953Z AUTO 00000KT 10SM CLR M02/M06 A3035 RMK AO2 SLP263 T10171056
KPRC 190520Z 1906/2006 VRB06KT P6SM SCT250
       
KSAD 190951Z AUTO 12004KT 10SM CLR 03/M06 A3030 RMK AO2 SLP242 T00331056
KSJN 190954Z AUTO 19004KT 10SM CLR M04/M07 A3036 RMK AO2 SLP276 T10391067
KSDL 190953Z AUTO 00000KT 10SM CLR 09/M02 A3026 RMK AO2 SLP236 T00941022
KSDL 190520Z 1906/2006 02005KT P6SM SKC 
     FM191000 VRB03KT P6SM SKC
       
KSEZ 190955Z AUTO 03010G16KT 10SM CLR 05/M05 A3035 RMK AO2
KSEZ 190520Z 1906/2006 04012KT P6SM SCT250 
     FM191500 VRB06KT P6SM SCT250 
     FM200300 04012KT P6SM SCT250
       
KSOW 190955Z AUTO 00000KT 10SM CLR M05/M07 A3038 RMK AO2
KTYL 190955Z AUTO 22006KT 10SM CLR M05/M06 A3039 RMK AO2
KAVQ 190955Z AUTO 00000KT 10SM CLR 06/01 RMK AO2 T00590007
KTUS 190953Z 13003KT 10SM CLR 07/06 A3027 RMK AO2 SLP231 T00720056
KTUS 190520Z 1906/2006 30010KT P6SM SKC 
     FM190800 14007KT P6SM SKC 
     FM191800 11017G25KT P6SM SKC
       
KCMR 190955Z AUTO 16003KT 10SM CLR M06/M07 A3034 RMK AO2
KRQE 190953Z AUTO 01005KT 10SM CLR M06/M09 A3035 RMK AO2 SLP276 T10611089
KINW 190956Z AUTO 00000KT 10SM CLR M03/M06 A3039 RMK AO2 SLP292 T10331061
KINW 190520Z 1906/2006 VRB06KT P6SM SCT250
       
KNYL 190857Z AUTO 35005KT 10SM CLR 15/04 A3026 RMK AO2 SLP246 T01500039 50006